Time;durP1;ratioP1;P1;durP2;ratioP2;P2;SDS_P1;SDS_P2;PMS_P1;PMS_P2;Temp;Humidity;BMP_temperature;BMP_pressure;BME280_temperature;BME280_humidity;BME280_pressure;Samples;Min_cycle;Max_cycle;Signal;HPM_P1;HPM_P2
2022/08/11 00:03:06;;;;;;;3.70;2.40;;;;;;;13.14;66.69;101075.32;129188;1269;1257659;-74
2022/08/11 00:06:13;;;;;;;3.40;2.60;;;;;;;13.05;66.72;101074.06;130095;1269;108870;-76
2022/08/11 00:09:21;;;;;;;3.30;2.80;;;;;;;13.02;66.98;101072.73;130159;1270;107226;-76
2022/08/11 00:12:27;;;;;;;3.80;2.70;;;;;;;12.95;66.98;101070.73;130140;1270;106911;-76
2022/08/11 00:15:42;;;;;;;4.00;2.50;;;;;;;12.86;67.05;101075.67;130152;1269;108911;-77
2022/08/11 00:18:49;;;;;;;4.20;2.10;;;;;;;12.83;67.12;101071.02;130101;1270;108594;-74
2022/08/11 00:21:56;;;;;;;4.50;2.30;;;;;;;12.80;67.12;101073.06;130155;1270;109022;-75
2022/08/11 00:25:09;;;;;;;3.50;2.50;;;;;;;12.80;67.29;101072.16;130183;1270;108845;-74
2022/08/11 00:28:29;;;;;;;3.70;2.60;;;;;;;12.78;67.19;101073.63;130251;1270;108846;-73
2022/08/11 00:31:37;;;;;;;3.50;2.80;;;;;;;12.70;67.21;101072.59;130189;1269;108822;-72
2022/08/11 00:34:46;;;;;;;3.50;2.80;;;;;;;12.58;67.41;101072.60;130198;1270;107170;-74
2022/08/11 00:37:54;;;;;;;3.50;2.90;;;;;;;12.53;67.44;101072.53;130231;1270;108814;-75
2022/08/11 00:41:07;;;;;;;3.70;2.70;;;;;;;12.50;67.52;101071.07;130241;1270;108706;-74
2022/08/11 00:44:28;;;;;;;4.60;2.30;;;;;;;12.45;67.56;101070.14;130230;1270;108762;-76
2022/08/11 00:47:48;;;;;;;3.80;2.40;;;;;;;12.36;67.78;101068.08;130184;1270;108513;-75
2022/08/11 00:51:09;;;;;;;5.40;3.00;;;;;;;12.35;67.64;101073.96;130193;1270;108853;-74
2022/08/11 00:54:41;;;;;;;5.80;2.70;;;;;;;12.34;68.09;101072.89;130201;1270;108764;-74
2022/08/11 00:58:29;;;;;;;5.60;3.00;;;;;;;12.42;67.85;101077.38;129946;1270;109061;-74
2022/08/11 01:01:56;;;;;;;3.80;3.10;;;;;;;12.36;67.79;101080.42;130204;1270;108917;-74
2022/08/11 01:05:42;;;;;;;5.70;3.10;;;;;;;12.24;67.78;101084.46;130229;1270;107813;-74
2022/08/11 01:09:19;;;;;;;3.90;2.90;;;;;;;12.15;68.16;101084.84;130178;1269;108650;-72
2022/08/11 01:12:44;;;;;;;4.90;2.90;;;;;;;12.06;68.43;101081.45;130206;1270;108681;-74
2022/08/11 01:16:13;;;;;;;4.60;2.70;;;;;;;11.98;68.55;101082.95;130211;1270;108751;-74
2022/08/11 01:19:55;;;;;;;6.10;3.20;;;;;;;11.96;68.32;101082.15;130211;1270;108803;-72
2022/08/11 01:23:31;;;;;;;4.60;2.80;;;;;;;11.97;68.33;101081.91;130180;1270;108263;-74
2022/08/11 01:27:19;;;;;;;4.70;3.10;;;;;;;11.87;68.72;101076.95;130195;1270;108217;-73
2022/08/11 01:30:57;;;;;;;6.00;3.20;;;;;;;11.90;68.74;101074.67;130189;1270;108150;-74
2022/08/11 01:34:47;;;;;;;5.10;3.60;;;;;;;11.92;68.70;101072.73;129949;1270;108692;-74
2022/08/11 01:38:20;;;;;;;5.70;3.50;;;;;;;11.93;68.42;101078.34;130171;1270;108940;-75
2022/08/11 01:45:31;;;;;;;4.90;3.60;;;;;;;11.87;68.81;101081.60;130105;1270;108759;-75
2022/08/11 01:48:44;;;;;;;5.40;3.50;;;;;;;11.87;68.88;101081.00;130182;1270;108763;-74
2022/08/11 01:52:07;;;;;;;4.70;3.30;;;;;;;11.91;68.66;101078.42;130221;1270;108934;-76
2022/08/11 01:55:22;;;;;;;4.70;3.40;;;;;;;11.87;68.82;101081.91;130139;1270;108951;-74
2022/08/11 01:58:35;;;;;;;6.00;3.70;;;;;;;11.89;68.87;101086.23;130142;1270;108891;-74
2022/08/11 02:01:57;;;;;;;6.10;3.70;;;;;;;11.81;68.74;101085.15;130152;1270;107202;-75
2022/08/11 02:05:18;;;;;;;4.50;3.70;;;;;;;11.79;69.16;101082.45;130191;1270;106952;-76
2022/08/11 02:08:35;;;;;;;5.20;3.80;;;;;;;11.78;69.01;101081.26;130138;1270;109199;-75
2022/08/11 02:11:45;;;;;;;5.90;3.80;;;;;;;11.68;69.29;101076.14;130100;1270;109576;-73
2022/08/11 02:15:08;;;;;;;5.40;3.50;;;;;;;11.59;69.03;101077.33;130129;1269;109724;-73
2022/08/11 02:18:21;;;;;;;6.20;3.80;;;;;;;11.53;69.02;101075.34;130149;1269;107495;-74
2022/08/11 02:25:06;;;;;;;5.30;4.10;;;;;;;11.58;69.34;101076.33;130158;1270;108779;-76
2022/08/11 02:28:27;;;;;;;5.10;4.00;;;;;;;11.60;68.98;101077.73;130102;1270;109327;-75
2022/08/11 02:35:19;;;;;;;4.80;3.50;;;;;;;11.49;69.04;101081.95;129931;1270;108642;-74
2022/08/11 02:38:31;;;;;;;4.90;3.60;;;;;;;11.35;69.19;101078.27;130114;1270;108288;-76
2022/08/11 02:45:32;;;;;;;8.20;4.10;;;;;;;11.26;69.27;101076.73;130150;1270;108848;-74
2022/08/11 02:52:14;;;;;;;;;;;;;;;11.28;69.68;101084.26;130162;1270;108971;-75
2022/08/11 02:55:31;;;;;;;6.30;4.20;;;;;;;11.30;69.54;101086.38;130082;1269;108666;-75
2022/08/11 02:58:44;;;;;;;5.80;4.10;;;;;;;11.31;69.49;101088.22;130226;1270;108167;-74
2022/08/11 03:01:53;;;;;;;6.80;4.60;;;;;;;11.29;69.60;101088.19;130207;1270;108244;-72
2022/08/11 03:05:07;;;;;;;11.00;4.50;;;;;;;11.29;69.75;101087.00;130191;1270;108936;-75
2022/08/11 03:08:35;;;;;;;6.00;4.00;;;;;;;11.22;69.79;101085.81;130201;1270;109662;-76
2022/08/11 03:19:14;;;;;;;5.60;4.30;;;;;;;11.13;69.85;101090.90;130177;1269;108881;-74
2022/08/11 03:22:25;;;;;;;6.90;4.50;;;;;;;11.06;69.93;101086.54;130225;1270;107397;-73
2022/08/11 03:25:39;;;;;;;5.60;4.30;;;;;;;11.02;70.19;101084.73;130179;1269;109023;-74
2022/08/11 03:28:51;;;;;;;7.10;4.60;;;;;;;11.03;70.34;101082.48;130165;1269;109069;-74
2022/08/11 03:32:03;;;;;;;7.40;4.90;;;;;;;11.09;70.04;101084.16;130111;1270;108707;-75
2022/08/11 03:35:12;;;;;;;7.50;4.50;;;;;;;11.08;70.29;101087.57;130177;1270;108724;-75
2022/08/11 03:38:27;;;;;;;6.80;4.00;;;;;;;11.05;70.20;101089.81;130142;1269;108602;-75
2022/08/11 03:41:44;;;;;;;6.80;4.50;;;;;;;11.08;70.40;101091.39;130200;1270;108214;-75
2022/08/11 03:45:06;;;;;;;9.00;5.00;;;;;;;11.09;70.29;101097.13;130158;1270;108680;-75
2022/08/11 03:48:19;;;;;;;7.20;5.10;;;;;;;11.15;70.58;101094.65;130157;1270;108665;-75
2022/08/11 03:51:30;;;;;;;7.10;4.80;;;;;;;11.16;70.38;101094.89;130000;1271;109106;-75
2022/08/11 03:54:50;;;;;;;7.20;4.60;;;;;;;11.17;70.79;101092.15;130155;1270;107606;-75
2022/08/11 03:58:31;;;;;;;5.90;4.40;;;;;;;11.26;70.46;101090.48;130217;1270;109191;-74
2022/08/11 04:02:08;;;;;;;6.00;3.90;;;;;;;11.35;70.43;101088.35;130141;1270;109125;-76
2022/08/11 04:05:47;;;;;;;6.20;3.90;;;;;;;11.50;70.50;101086.90;130192;1270;109819;-74
2022/08/11 04:09:28;;;;;;;6.50;3.90;;;;;;;11.75;70.55;101087.46;130202;1270;108829;-73
2022/08/11 04:12:57;;;;;;;7.00;4.10;;;;;;;12.01;70.75;101092.21;130226;1270;108877;-74
2022/08/11 04:16:24;;;;;;;5.00;3.60;;;;;;;12.45;73.54;101090.34;130177;1270;108807;-74
2022/08/11 04:19:53;;;;;;;4.10;3.00;;;;;;;13.28;74.00;101087.34;130158;1270;108781;-74
2022/08/11 04:23:25;;;;;;;4.10;2.70;;;;;;;14.10;73.89;101089.59;130127;1270;108594;-74
2022/08/11 04:26:49;;;;;;;6.60;3.20;;;;;;;14.85;73.44;101091.20;130199;1270;109207;-75
2022/08/11 04:30:08;;;;;;;5.70;3.60;;;;;;;15.54;73.09;101087.68;130040;1271;108212;-75
2022/08/11 04:33:41;;;;;;;4.70;3.50;;;;;;;16.16;72.47;101091.17;130142;1270;108777;-75
2022/08/11 04:41:15;;;;;;;6.00;4.30;;;;;;;17.10;69.62;101088.89;130187;1269;108869;-76
2022/08/11 04:44:43;;;;;;;7.20;4.70;;;;;;;16.92;69.16;101095.91;130170;1270;110544;-76
2022/08/11 05:03:46;;;;;;;7.50;3.90;;;;;;;16.97;70.16;101106.64;130226;1270;108751;-77
2022/08/11 05:07:12;;;;;;;5.20;4.20;;;;;;;17.16;70.22;101105.08;130208;1269;108722;-77
2022/08/11 05:10:45;;;;;;;9.00;4.50;;;;;;;17.37;70.10;101104.43;130226;1270;107618;-75
2022/08/11 05:34:59;;;;;;;6.70;3.80;;;;;;;18.40;69.71;101100.72;130178;1271;108677;-80
2022/08/11 05:58:46;;;;;;;8.50;3.80;;;;;;;19.14;68.23;101108.88;130211;1271;109829;-76
2022/08/11 06:01:53;;;;;;;6.50;3.70;;;;;;;19.10;68.71;101104.54;130227;1268;109196;-75
2022/08/11 06:04:59;;;;;;;9.00;4.60;;;;;;;19.17;68.95;101111.80;130192;1271;108834;-77
2022/08/11 06:08:07;;;;;;;5.50;3.20;;;;;;;19.22;68.36;101110.73;130347;1269;108686;-75
2022/08/11 06:11:13;;;;;;;9.70;3.80;;;;;;;19.32;68.75;101106.18;130260;1267;108812;-75
2022/08/11 06:14:20;;;;;;;7.30;4.00;;;;;;;19.42;68.42;101104.55;130343;1268;108793;-78
2022/08/11 06:17:29;;;;;;;9.60;3.50;;;;;;;19.44;68.17;101104.64;130397;1268;108788;-74
2022/08/11 06:20:47;;;;;;;6.70;4.00;;;;;;;19.48;68.37;101101.63;130250;1268;109054;-72
2022/08/11 06:23:55;;;;;;;6.40;3.60;;;;;;;19.51;67.97;101099.05;130310;1268;108804;-72
2022/08/11 06:27:05;;;;;;;8.00;3.80;;;;;;;19.51;68.13;101099.58;130232;1268;108915;-75
2022/08/11 06:30:13;;;;;;;7.10;3.40;;;;;;;19.49;67.85;101100.46;130145;1268;109004;-75
2022/08/11 06:33:29;;;;;;;4.70;3.00;;;;;;;19.39;67.63;101101.27;130211;1270;108921;-76
2022/08/11 06:36:41;;;;;;;7.70;3.50;;;;;;;19.33;67.64;101102.83;130212;1268;108659;-72
2022/08/11 06:39:57;;;;;;;6.80;3.60;;;;;;;19.31;67.73;101102.52;130261;1268;108495;-72
2022/08/11 06:43:11;;;;;;;7.30;3.70;;;;;;;19.28;67.51;101098.52;130221;1271;108776;-72
2022/08/11 06:46:27;;;;;;;5.30;3.20;;;;;;;19.24;67.01;101094.73;130193;1271;108501;-74
2022/08/11 06:53:09;;;;;;;7.60;3.20;;;;;;;19.19;67.25;101086.77;130056;1271;108580;-72
2022/08/11 07:03:12;;;;;;;6.20;3.20;;;;;;;19.29;67.18;101071.39;130367;1269;108821;-71
2022/08/11 07:06:33;;;;;;;6.80;3.20;;;;;;;19.37;67.26;101069.73;130137;1271;108637;-72
2022/08/11 07:17:05;;;;;;;4.30;2.20;;;;;;;19.64;66.28;101062.48;130244;1271;108760;-73
2022/08/11 07:30:28;;;;;;;3.60;1.90;;;;;;;19.90;66.00;101067.17;130172;1271;108644;-74
2022/08/11 07:33:44;;;;;;;3.80;2.00;;;;;;;19.98;65.54;101069.95;130000;1270;109800;-76
2022/08/11 07:36:53;;;;;;;6.40;2.20;;;;;;;20.00;65.24;101070.35;130057;1270;107206;-71
2022/08/11 07:40:00;;;;;;;5.10;2.30;;;;;;;20.06;65.30;101072.95;130034;1271;108742;-72
2022/08/11 07:43:06;;;;;;;5.20;1.90;;;;;;;20.13;64.87;101070.40;130112;1270;109024;-75
2022/08/11 07:53:02;;;;;;;4.30;2.00;;;;;;;20.33;63.92;101078.27;130287;1268;108740;-73
2022/08/11 07:56:09;;;;;;;2.90;1.80;;;;;;;20.40;64.33;101074.11;130341;1268;107227;-73
2022/08/11 08:19:36;;;;;;;3.20;1.40;;;;;;;20.87;63.05;101062.36;130109;1270;109207;-74
2022/08/11 08:22:42;;;;;;;1.60;1.30;;;;;;;20.96;62.46;101063.88;130209;1271;108214;-72
2022/08/11 08:25:51;;;;;;;2.60;1.20;;;;;;;21.03;62.04;101063.31;130847;1268;108895;-73
2022/08/11 08:32:21;;;;;;;7.60;1.50;;;;;;;21.15;61.62;101067.30;130357;1268;109725;-72
2022/08/11 08:35:29;;;;;;;3.60;1.30;;;;;;;21.24;62.04;101065.31;130275;1271;108917;-75
2022/08/11 08:38:34;;;;;;;2.30;1.30;;;;;;;21.31;61.71;101062.96;130341;1271;108654;-78
2022/08/11 08:41:42;;;;;;;2.90;1.30;;;;;;;21.36;61.05;101059.08;130141;1270;109670;-74
2022/08/11 08:44:56;;;;;;;2.60;1.50;;;;;;;21.43;60.98;101060.45;130126;1270;109005;-74
2022/08/11 08:48:03;;;;;;;1.90;1.20;;;;;;;21.48;60.75;101063.33;130199;1270;108965;-75
2022/08/11 08:54:38;;;;;;;2.30;1.30;;;;;;;21.62;58.92;101063.85;130179;1270;108994;-75
2022/08/11 08:57:46;;;;;;;1.60;1.30;;;;;;;21.65;59.26;101065.28;130434;1268;108709;-75
2022/08/11 09:00:54;;;;;;;2.50;1.30;;;;;;;21.71;60.01;101056.39;130418;1268;108669;-75
2022/08/11 09:04:00;;;;;;;4.90;1.40;;;;;;;21.86;59.88;101053.55;130489;1268;109693;-76
2022/08/11 09:07:12;;;;;;;2.60;1.30;;;;;;;22.03;60.24;101058.30;130311;1268;108260;-74
2022/08/11 09:10:18;;;;;;;;;;;;;;;22.15;59.23;101053.52;130272;1268;109155;-77
2022/08/11 09:13:24;;;;;;;1.30;1.10;;;;;;;22.24;57.83;101057.83;130287;1268;109858;-77
2022/08/11 09:16:30;;;;;;;1.80;1.30;;;;;;;22.29;58.87;101049.67;130300;1268;108915;-77
2022/08/11 09:19:35;;;;;;;3.60;1.30;;;;;;;22.35;58.08;101050.35;130411;1268;108572;-77
2022/08/11 09:29:49;;;;;;;2.10;1.30;;;;;;;22.82;56.20;101043.33;130195;1270;110074;-74
2022/08/11 09:32:59;;;;;;;1.50;1.10;;;;;;;22.87;57.01;101041.71;130177;1270;109846;-76
2022/08/11 09:46:11;;;;;;;2.00;1.10;;;;;;;22.88;55.81;101029.94;130554;1268;107709;-76
2022/08/11 09:49:19;;;;;;;1.70;1.10;;;;;;;22.95;55.84;101030.38;130206;1270;108772;-75
2022/08/11 09:52:26;;;;;;;2.60;1.00;;;;;;;23.00;56.24;101026.97;130237;1268;108682;-78
2022/08/11 09:55:32;;;;;;;2.40;1.20;;;;;;;23.11;55.58;101025.43;130212;1268;108593;-75
2022/08/11 09:58:38;;;;;;;1.20;1.00;;;;;;;23.28;55.44;101017.64;130168;1268;109169;-76
2022/08/11 10:01:47;;;;;;;3.10;1.10;;;;;;;23.44;55.10;101019.86;130135;1270;108824;-77
2022/08/11 10:07:00;;;;;;;2.90;1.10;;;;;;;23.46;54.02;101021.16;130311;1270;107912;-76
2022/08/11 10:08:26;;;;;;;3.80;1.10;;;;;;;23.40;54.51;101019.41;130217;1268;108828;-75
2022/08/11 10:11:34;;;;;;;1.80;1.10;;;;;;;23.34;54.71;101017.05;130293;1268;108900;-75
2022/08/11 10:21:41;;;;;;;2.10;0.90;;;;;;;23.70;54.02;101010.30;130116;1269;109136;-74
2022/08/11 10:28:15;;;;;;;1.80;1.00;;;;;;;24.07;52.44;100994.45;129788;1270;108921;-78
2022/08/11 10:34:44;;;;;;;1.40;0.80;;;;;;;24.23;50.19;100992.27;130660;1268;109828;-76
2022/08/11 10:37:50;;;;;;;1.80;1.00;;;;;;;24.20;50.22;100991.98;130115;1270;109094;-79
2022/08/11 10:44:20;;;;;;;1.60;0.90;;;;;;;23.92;51.04;100986.63;130301;1268;109141;-74
2022/08/11 10:47:37;;;;;;;1.10;1.00;;;;;;;23.88;51.38;100985.95;130319;1268;108921;-78
2022/08/11 11:00:59;;;;;;;2.00;1.00;;;;;;;23.46;50.40;100969.12;130302;1268;108742;-73
2022/08/11 11:04:09;;;;;;;2.40;0.80;;;;;;;23.59;50.42;100961.98;130191;1270;107735;-73
2022/08/11 11:07:22;;;;;;;0.90;0.80;;;;;;;23.69;50.74;100954.13;130201;1270;108647;-74
2022/08/11 11:10:28;;;;;;;2.70;0.70;;;;;;;23.68;49.41;100950.41;130231;1270;108889;-76
2022/08/11 11:20:25;;;;;;;2.50;0.90;;;;;;;23.80;50.07;100929.95;130234;1270;107787;-78
2022/08/11 11:23:38;;;;;;;0.90;0.70;;;;;;;24.00;49.54;100931.87;130299;1268;109723;-78
2022/08/11 11:26:54;;;;;;;1.30;0.80;;;;;;;24.07;48.75;100923.95;130928;1268;108669;-81
2022/08/11 11:30:13;;;;;;;1.70;1.00;;;;;;;24.12;49.33;100919.40;130360;1268;108819;-80
2022/08/11 11:33:27;;;;;;;1.40;0.80;;;;;;;24.09;49.41;100927.08;131254;1268;108584;-78
2022/08/11 11:36:45;;;;;;;1.40;1.00;;;;;;;23.80;48.88;100926.05;130595;1268;107534;-79
2022/08/11 11:39:51;;;;;;;1.50;1.20;;;;;;;23.46;49.16;100919.21;130211;1268;109048;-77
2022/08/11 11:42:59;;;;;;;1.20;0.70;;;;;;;23.33;48.52;100914.66;130493;1268;107415;-78
2022/08/11 11:46:08;;;;;;;1.00;0.90;;;;;;;23.50;49.13;100906.23;130417;1269;108636;-79
2022/08/11 11:49:14;;;;;;;1.70;0.90;;;;;;;23.80;49.12;100896.95;130246;1270;108832;-76
2022/08/11 11:52:22;;;;;;;1.10;0.90;;;;;;;24.07;48.10;100894.89;130502;1270;108587;-77
2022/08/11 11:55:29;;;;;;;1.80;0.80;;;;;;;24.18;47.70;100889.89;130184;1270;109894;-77
2022/08/11 12:01:59;;;;;;;1.10;0.90;;;;;;;24.17;47.85;100889.06;127091;1269;4575045;-78
2022/08/11 12:05:07;;;;;;;1.90;1.00;;;;;;;24.03;46.45;100885.16;130399;1269;97982;-78
2022/08/11 12:08:15;;;;;;;3.00;1.00;;;;;;;23.80;47.81;100885.34;130415;1268;99184;-78
2022/08/11 12:14:49;;;;;;;2.40;1.10;;;;;;;23.89;47.78;100876.20;130248;1269;98065;-77
2022/08/11 12:17:56;;;;;;;2.50;0.80;;;;;;;24.11;47.55;100873.16;130406;1270;99079;-76
2022/08/11 12:21:03;;;;;;;1.50;0.90;;;;;;;24.28;47.13;100868.95;130575;1270;98623;-77
2022/08/11 12:27:34;;;;;;;1.30;0.80;;;;;;;24.15;46.97;100867.82;130401;1270;97991;-78
2022/08/11 12:30:40;;;;;;;2.40;0.90;;;;;;;24.04;46.63;100868.90;130316;1270;97973;-77
2022/08/11 12:33:45;;;;;;;1.50;0.90;;;;;;;24.07;46.79;100861.33;130419;1268;99159;-78
2022/08/11 12:36:56;;;;;;;1.20;0.90;;;;;;;24.23;47.12;100858.70;130008;1270;99212;-76
2022/08/11 12:46:57;;;;;;;1.80;0.90;;;;;;;24.61;45.64;100851.84;129963;1270;98091;-77
2022/08/11 12:53:29;;;;;;;1.50;0.70;;;;;;;24.46;43.82;100853.63;130169;1270;98758;-76
2022/08/11 13:06:57;;;;;;;1.60;0.90;;;;;;;24.34;45.14;100855.75;130098;1270;99157;-76
2022/08/11 13:10:06;;;;;;;1.20;0.80;;;;;;;24.24;45.35;100858.59;130064;1270;99153;-75
2022/08/11 13:13:12;;;;;;;2.20;1.10;;;;;;;24.15;45.56;100867.77;130158;1270;98036;-75
2022/08/11 13:16:19;;;;;;;1.70;0.90;;;;;;;24.01;46.18;100875.36;130116;1270;97997;-76
2022/08/11 13:19:26;;;;;;;1.10;1.00;;;;;;;23.88;46.81;100875.63;130157;1270;98002;-76
2022/08/11 13:22:32;;;;;;;1.70;1.10;;;;;;;23.79;47.05;100879.65;130108;1268;99256;-76
2022/08/11 13:25:40;;;;;;;2.20;1.20;;;;;;;23.74;47.33;100887.06;130185;1268;98094;-75
2022/08/11 13:28:54;;;;;;;2.10;1.30;;;;;;;23.69;47.68;100890.33;130263;1268;97990;-75
2022/08/11 13:32:00;;;;;;;3.40;1.30;;;;;;;23.71;47.89;100888.98;130238;1268;97966;-75
2022/08/11 13:35:08;;;;;;;3.40;1.20;;;;;;;23.57;48.30;100889.36;130243;1267;97985;-75
2022/08/11 13:38:14;;;;;;;3.00;1.30;;;;;;;23.37;48.89;100888.06;130220;1268;99194;-76
2022/08/11 13:41:39;;;;;;;2.90;1.10;;;;;;;23.20;49.19;100889.92;130282;1268;99128;-75
2022/08/11 13:44:46;;;;;;;1.30;1.00;;;;;;;23.07;49.48;100886.58;130197;1270;99174;-75
2022/08/11 13:47:55;;;;;;;1.80;1.10;;;;;;;23.08;50.15;100883.35;130195;1269;98775;-75
2022/08/11 13:54:29;;;;;;;1.60;1.20;;;;;;;23.37;50.40;100872.81;130227;1269;98674;-77
2022/08/11 13:57:36;;;;;;;1.30;1.20;;;;;;;23.53;50.78;100870.20;130205;1270;97973;-76
2022/08/11 14:00:45;;;;;;;4.40;1.70;;;;;;;23.73;51.09;100869.80;130262;1269;97992;-75
2022/08/11 14:03:51;;;;;;;1.70;1.20;;;;;;;23.92;50.58;100871.39;130238;1270;99038;-76
2022/08/11 14:06:59;;;;;;;3.60;1.00;;;;;;;24.07;50.60;100876.73;130233;1270;98041;-77
2022/08/11 14:10:09;;;;;;;1.90;1.10;;;;;;;24.20;50.63;100885.96;130223;1270;98720;-77
2022/08/11 14:16:44;;;;;;;1.90;1.00;;;;;;;24.26;51.40;100882.65;129919;1268;98102;-77
2022/08/11 14:19:53;;;;;;;1.40;1.10;;;;;;;24.13;50.99;100888.52;130121;1270;98001;-75
2022/08/11 14:22:58;;;;;;;1.90;1.20;;;;;;;24.01;51.58;100889.87;130239;1270;99044;-76
2022/08/11 14:26:25;;;;;;;1.40;1.10;;;;;;;23.80;52.36;100896.38;130201;1269;98063;-75
2022/08/11 14:29:33;;;;;;;2.00;1.20;;;;;;;23.53;52.72;100909.71;130279;1269;97984;-75
2022/08/11 14:32:38;;;;;;;1.40;1.00;;;;;;;23.18;53.52;100932.23;130302;1268;98619;-76
2022/08/11 14:35:45;;;;;;;1.60;0.90;;;;;;;22.68;54.61;100946.98;130254;1268;98901;-75
2022/08/11 14:38:53;;;;;;;1.10;0.90;;;;;;;22.20;54.77;100938.67;130162;1268;99194;-75
2022/08/11 14:48:49;;;;;;;1.00;0.80;;;;;;;21.58;54.93;100943.19;130197;1270;97972;-75
2022/08/11 14:51:56;;;;;;;1.40;0.90;;;;;;;21.54;54.68;100938.16;130202;1269;99155;-75
2022/08/11 14:58:29;;;;;;;2.20;1.10;;;;;;;21.60;56.04;100932.06;130201;1269;98024;-76
2022/08/11 15:05:01;;;;;;;1.20;1.00;;;;;;;21.55;55.38;100921.92;130183;1270;98068;-75
2022/08/11 15:08:08;;;;;;;1.90;1.00;;;;;;;21.63;55.87;100914.39;130184;1270;98011;-75
2022/08/11 15:18:07;;;;;;;3.10;1.00;;;;;;;21.77;56.58;100903.35;130158;1269;99182;-75
2022/08/11 15:24:35;;;;;;;1.30;1.20;;;;;;;21.56;57.15;100895.35;129968;1269;97982;-75
2022/08/11 15:37:58;;;;;;;1.10;0.90;;;;;;;20.91;57.22;100877.11;130208;1270;98742;-75
2022/08/11 15:48:06;;;;;;;1.30;0.90;;;;;;;21.10;58.58;100864.29;130159;1270;99027;-76
2022/08/11 15:51:21;;;;;;;1.60;0.90;;;;;;;21.13;58.60;100862.95;130106;1270;98421;-76
2022/08/11 15:54:30;;;;;;;13.30;7.60;;;;;;;21.22;59.05;100854.73;130196;1270;99171;-75
2022/08/11 16:04:30;;;;;;;3.40;1.20;;;;;;;21.52;59.38;100852.83;130046;1269;99219;-75
2022/08/11 16:07:37;;;;;;;1.00;0.90;;;;;;;21.32;59.64;100852.05;130097;1270;97977;-75
2022/08/11 16:10:43;;;;;;;2.70;1.00;;;;;;;21.18;59.39;100849.84;130038;1270;98100;-75
2022/08/11 16:17:16;;;;;;;1.30;1.00;;;;;;;21.09;59.74;100838.90;130002;1270;98648;-75
2022/08/11 16:20:24;;;;;;;1.30;1.00;;;;;;;21.11;59.66;100835.86;130032;1270;98870;-75
2022/08/11 16:23:30;;;;;;;3.50;1.50;;;;;;;21.25;59.98;100834.35;129970;1270;98043;-75
2022/08/11 16:26:39;;;;;;;1.30;1.00;;;;;;;21.33;60.27;100832.72;130061;1270;98182;-75
2022/08/11 16:29:47;;;;;;;1.80;1.20;;;;;;;21.21;60.56;100832.27;130140;1270;97977;-75
2022/08/11 16:32:54;;;;;;;1.80;0.90;;;;;;;21.06;60.60;100832.44;130132;1270;98754;-76
2022/08/11 16:39:24;;;;;;;3.00;2.10;;;;;;;20.88;60.81;100832.13;130017;1270;98000;-76
2022/08/11 16:49:24;;;;;;;3.50;1.90;;;;;;;20.46;61.33;100822.55;129964;1270;99158;-77
2022/08/11 16:52:29;;;;;;;2.70;1.80;;;;;;;20.40;61.61;100819.86;129933;1270;99150;-76
2022/08/11 16:55:36;;;;;;;2.70;1.40;;;;;;;20.34;61.96;100820.13;129959;1270;99160;-76
2022/08/11 17:13:07;;;;;;;1.40;1.20;;;;;;;20.21;62.07;100824.17;129953;1270;97989;-76
2022/08/11 17:16:11;;;;;;;1.70;1.40;;;;;;;20.01;63.13;100825.38;129973;1270;99070;-76
2022/08/11 17:19:25;;;;;;;1.80;1.20;;;;;;;19.97;63.50;100825.02;129987;1270;97984;-75
2022/08/11 17:25:57;;;;;;;1.40;0.90;;;;;;;19.91;63.89;100829.04;129920;1270;98182;-75
2022/08/11 17:29:05;;;;;;;1.50;1.10;;;;;;;19.89;64.03;100830.17;129936;1270;98078;-76
2022/08/11 17:35:43;;;;;;;1.30;1.20;;;;;;;19.73;64.43;100827.35;129824;1270;98064;-76
2022/08/11 17:38:50;;;;;;;1.30;1.20;;;;;;;19.62;64.62;100829.01;130040;1270;99291;-77
2022/08/11 17:48:47;;;;;;;2.10;1.60;;;;;;;19.29;65.16;100832.36;129962;1270;97975;-74
2022/08/11 18:05:29;;;;;;;4.30;2.20;;;;;;;18.63;66.28;100835.56;130002;1270;98794;-75
